createdAt,value
2022-08-25T00:00:22.571Z,89.60
2022-08-25T00:03:05.323Z,89.91
2022-08-25T00:05:33.404Z,89.65
2022-08-25T00:08:03.666Z,89.49
2022-08-25T00:10:35.240Z,89.71
2022-08-25T00:13:05.100Z,89.93
2022-08-25T00:15:33.408Z,89.53
2022-08-25T00:18:02.132Z,89.75
2022-08-25T00:20:30.909Z,89.90
2022-08-25T00:22:58.838Z,89.91
2022-08-25T00:25:27.098Z,89.94
2022-08-25T00:27:57.102Z,90.27
2022-08-25T00:30:26.746Z,90.50
2022-08-25T00:32:57.088Z,90.93
2022-08-25T00:35:27.219Z,90.65
2022-08-25T00:37:55.170Z,90.73
2022-08-25T00:40:26.081Z,90.44
2022-08-25T00:42:56.131Z,90.81
2022-08-25T00:45:24.876Z,90.80
2022-08-25T00:47:52.951Z,90.64
2022-08-25T00:50:22.654Z,90.33
2022-08-25T00:52:59.417Z,90.24
2022-08-25T00:55:30.711Z,90.02
2022-08-25T00:58:20.113Z,90.52
2022-08-25T01:00:52.973Z,90.81
2022-08-25T01:03:23.868Z,90.74
2022-08-25T01:06:03.162Z,90.29
2022-08-25T01:08:33.520Z,90.14
2022-08-25T01:11:08.871Z,90.61
2022-08-25T01:13:51.084Z,90.55
2022-08-25T01:16:19.152Z,90.72
2022-08-25T01:18:54.631Z,91.03
2022-08-25T01:21:26.479Z,91.00
2022-08-25T01:23:58.212Z,91.28
2022-08-25T01:26:31.137Z,91.35
2022-08-25T01:29:21.083Z,91.28
2022-08-25T01:31:55.887Z,91.99
2022-08-25T01:34:27.673Z,92.30
2022-08-25T01:36:58.550Z,92.88
2022-08-25T01:39:29.523Z,93.29
2022-08-25T01:42:04.646Z,93.14
2022-08-25T01:44:35.870Z,93.16
2022-08-25T01:47:06.088Z,93.47
2022-08-25T01:49:35.243Z,93.49
2022-08-25T01:52:24.840Z,93.39
2022-08-25T01:54:52.741Z,93.66
2022-08-25T01:57:20.612Z,93.49
2022-08-25T01:59:48.616Z,93.45
2022-08-25T02:02:18.328Z,93.28
2022-08-25T02:04:46.385Z,93.19
2022-08-25T02:07:14.447Z,93.24
2022-08-25T02:09:42.431Z,93.41
2022-08-25T02:12:11.098Z,93.37
2022-08-25T02:14:39.043Z,93.40
2022-08-25T02:17:09.795Z,93.33
2022-08-25T02:19:38.069Z,93.39
2022-08-25T02:22:06.882Z,93.96
2022-08-25T02:24:35.130Z,93.87
2022-08-25T02:27:04.159Z,93.97
2022-08-25T02:29:33.737Z,94.12
2022-08-25T02:32:03.035Z,93.94
2022-08-25T02:34:31.103Z,93.51
2022-08-25T02:36:59.048Z,93.52
2022-08-25T02:39:27.038Z,93.29
2022-08-25T02:41:55.027Z,93.18
2022-08-25T02:44:22.887Z,93.19
2022-08-25T02:46:50.733Z,93.32
2022-08-25T02:49:18.744Z,93.61
2022-08-25T02:51:46.616Z,93.34
2022-08-25T02:54:14.571Z,93.38
2022-08-25T02:56:43.073Z,93.51
2022-08-25T02:59:12.254Z,93.26
2022-08-25T03:01:40.178Z,93.39
2022-08-25T03:04:08.236Z,93.33
2022-08-25T03:06:36.098Z,93.26
2022-08-25T03:09:04.670Z,92.99
2022-08-25T03:11:33.369Z,92.87
2022-08-25T03:14:01.292Z,92.86
2022-08-25T03:16:31.828Z,92.67
2022-08-25T03:19:00.626Z,93.20
2022-08-25T03:21:29.736Z,93.56
2022-08-25T03:23:58.991Z,93.51
2022-08-25T03:26:45.851Z,93.69
2022-08-25T03:29:13.956Z,93.76
2022-08-25T03:31:44.851Z,93.70
2022-08-25T03:34:18.458Z,93.66
2022-08-25T03:36:49.989Z,93.83
2022-08-25T03:39:24.698Z,93.77
2022-08-25T03:41:53.858Z,93.75
2022-08-25T03:44:22.490Z,94.09
2022-08-25T03:46:52.245Z,94.02
2022-08-25T03:49:23.875Z,94.10
2022-08-25T03:51:54.821Z,93.99
2022-08-25T03:54:25.707Z,94.18
2022-08-25T03:56:53.991Z,94.19
2022-08-25T03:59:22.186Z,94.07
2022-08-25T04:01:54.781Z,93.91
2022-08-25T04:04:24.523Z,94.00
2022-08-25T04:06:53.034Z,93.79
2022-08-25T04:09:22.386Z,93.67
2022-08-25T04:11:53.350Z,93.72
2022-08-25T04:14:23.451Z,93.32
2022-08-25T04:16:53.091Z,93.03
2022-08-25T04:19:22.051Z,92.97
2022-08-25T04:21:50.064Z,92.86
2022-08-25T04:24:18.160Z,92.46
2022-08-25T04:26:50.347Z,92.65
2022-08-25T04:29:23.551Z,92.09
2022-08-25T04:31:54.123Z,91.92
2022-08-25T04:34:30.537Z,91.60
2022-08-25T04:37:03.395Z,91.52
2022-08-25T04:39:32.237Z,91.40
2022-08-25T04:42:01.298Z,91.17
2022-08-25T04:44:30.838Z,90.57
2022-08-25T04:47:01.504Z,90.64
2022-08-25T04:49:29.707Z,90.13
2022-08-25T04:51:57.854Z,90.06
2022-08-25T04:54:26.227Z,89.71
2022-08-25T04:56:58.088Z,89.48
2022-08-25T04:59:29.466Z,89.15
2022-08-25T05:02:03.010Z,88.88
2022-08-25T05:04:32.733Z,88.98
2022-08-25T05:07:01.448Z,88.77
2022-08-25T05:09:32.294Z,88.87
2022-08-25T05:12:03.227Z,88.87
2022-08-25T05:14:32.569Z,88.96
2022-08-25T05:17:01.281Z,89.18
2022-08-25T05:19:29.511Z,89.09
2022-08-25T05:21:57.738Z,89.35
2022-08-25T05:24:26.877Z,89.52
2022-08-25T05:26:55.626Z,89.03
2022-08-25T05:29:23.737Z,88.25
2022-08-25T05:31:51.871Z,88.17
2022-08-25T05:34:20.584Z,87.59
2022-08-25T05:36:49.329Z,87.24
2022-08-25T05:39:17.418Z,87.43
2022-08-25T05:41:45.316Z,87.58
2022-08-25T05:44:15.917Z,87.82
2022-08-25T05:46:45.763Z,88.07
2022-08-25T05:49:13.550Z,87.39
2022-08-25T05:51:41.391Z,87.11
2022-08-25T05:54:10.364Z,86.66
2022-08-25T05:56:38.255Z,86.19
2022-08-25T05:59:09.314Z,86.12
2022-08-25T06:01:56.513Z,85.65
2022-08-25T06:04:24.699Z,85.67
2022-08-25T06:06:54.812Z,84.75
2022-08-25T06:09:24.390Z,84.04
2022-08-25T06:11:55.175Z,84.00
2022-08-25T06:14:24.463Z,84.78
2022-08-25T06:16:53.269Z,83.95
2022-08-25T06:19:23.199Z,83.13
2022-08-25T06:21:55.775Z,83.10
2022-08-25T06:24:26.520Z,83.31
2022-08-25T06:26:55.300Z,82.71
2022-08-25T06:29:24.244Z,82.47
2022-08-25T06:31:52.752Z,82.07
2022-08-25T06:34:23.957Z,81.74
2022-08-25T06:36:53.154Z,81.12
2022-08-25T06:39:21.945Z,81.51
2022-08-25T06:41:54.936Z,80.99
2022-08-25T06:44:24.815Z,81.30
2022-08-25T06:46:52.762Z,81.38
2022-08-25T06:49:21.519Z,81.89
2022-08-25T06:51:50.534Z,80.49
2022-08-25T06:54:18.372Z,80.63
2022-08-25T06:56:46.978Z,81.00
2022-08-25T06:59:17.923Z,81.12
2022-08-25T07:01:45.966Z,80.06
2022-08-25T07:04:18.082Z,80.31
2022-08-25T07:06:46.824Z,79.30
2022-08-25T07:09:15.149Z,78.68
2022-08-25T07:11:45.690Z,77.74
2022-08-25T07:14:16.972Z,78.14
2022-08-25T07:16:49.615Z,78.71
2022-08-25T07:19:22.101Z,78.37
2022-08-25T07:21:53.104Z,78.85
2022-08-25T07:24:23.041Z,78.35
2022-08-25T07:26:51.879Z,77.85
2022-08-25T07:29:32.227Z,77.83
2022-08-25T07:32:03.926Z,76.94
2022-08-25T07:34:52.397Z,76.35
2022-08-25T07:37:47.834Z,76.71
2022-08-25T07:40:23.417Z,77.29
2022-08-25T07:42:56.329Z,77.00
2022-08-25T07:45:30.634Z,76.87
2022-08-25T07:48:07.388Z,76.20
2022-08-25T07:50:38.939Z,76.01
2022-08-25T07:53:07.238Z,76.29
2022-08-25T07:55:36.599Z,76.69
2022-08-25T07:58:07.691Z,76.75
2022-08-25T08:00:37.679Z,76.77
2022-08-25T08:03:12.970Z,77.01
2022-08-25T08:05:48.109Z,75.81
2022-08-25T08:08:17.199Z,75.08
2022-08-25T08:11:04.132Z,74.06
2022-08-25T08:13:38.058Z,72.58
2022-08-25T08:16:13.242Z,70.68
2022-08-25T08:18:43.686Z,69.98
2022-08-25T08:21:20.011Z,69.39
2022-08-25T08:23:49.677Z,69.91
2022-08-25T08:26:18.237Z,69.64
2022-08-25T08:28:51.918Z,69.31
2022-08-25T08:31:22.584Z,68.74
2022-08-25T08:33:51.214Z,68.39
2022-08-25T08:36:19.824Z,68.54
2022-08-25T08:38:49.364Z,70.79
2022-08-25T08:42:19.502Z,72.23
2022-08-25T08:45:15.142Z,68.52
2022-08-25T08:48:16.261Z,68.40
2022-08-25T08:51:03.002Z,67.91
2022-08-25T08:53:57.264Z,68.47
2022-08-25T08:56:31.871Z,68.73
2022-08-25T08:59:07.575Z,69.26
2022-08-25T09:01:56.628Z,73.07
2022-08-25T09:04:41.748Z,69.62
2022-08-25T09:07:21.716Z,70.78
2022-08-25T09:09:52.336Z,70.58
2022-08-25T09:12:41.311Z,72.51
2022-08-25T09:16:08.292Z,73.05
2022-08-25T09:19:23.571Z,72.03
2022-08-25T09:22:01.389Z,72.03
2022-08-25T09:25:08.853Z,72.93
2022-08-25T09:28:39.812Z,67.52
2022-08-25T09:31:29.441Z,70.55
2022-08-25T09:34:04.536Z,67.02
2022-08-25T09:36:37.512Z,65.79
2022-08-25T09:39:07.989Z,68.14
2022-08-25T09:42:01.257Z,67.48
2022-08-25T09:44:38.839Z,66.93
2022-08-25T09:47:15.296Z,70.58
2022-08-25T09:49:49.185Z,70.98
2022-08-25T09:52:33.010Z,70.33
2022-08-25T09:55:29.111Z,69.35
2022-08-25T09:58:00.702Z,67.49
2022-08-25T10:00:35.105Z,65.70
2022-08-25T10:03:24.493Z,64.79
2022-08-25T10:05:58.882Z,62.98
2022-08-25T10:08:44.977Z,63.34
2022-08-25T10:11:42.959Z,63.66
2022-08-25T10:14:44.469Z,62.37
2022-08-25T10:17:29.532Z,63.35
2022-08-25T10:20:09.785Z,63.55
2022-08-25T10:22:40.476Z,66.28
2022-08-25T10:25:13.229Z,67.71
2022-08-25T10:28:14.740Z,66.31
2022-08-25T10:31:22.066Z,67.09
2022-08-25T10:34:45.998Z,64.82
2022-08-25T10:38:05.085Z,69.91
2022-08-25T10:40:53.255Z,69.97
2022-08-25T10:43:50.025Z,71.28
2022-08-25T10:47:20.679Z,70.04
2022-08-25T10:49:56.562Z,61.11
2022-08-25T10:52:55.903Z,61.68
2022-08-25T10:55:52.398Z,62.05
2022-08-25T10:58:45.358Z,60.62
2022-08-25T11:01:43.745Z,58.75
2022-08-25T11:04:43.467Z,62.41
2022-08-25T11:07:25.519Z,62.25
2022-08-25T11:10:00.771Z,60.93
2022-08-25T11:12:44.988Z,59.23
2022-08-25T11:15:29.478Z,60.41
2022-08-25T11:18:14.006Z,61.66
2022-08-25T11:21:02.547Z,57.52
2022-08-25T11:23:39.786Z,58.19
2022-08-25T11:26:12.462Z,57.28
2022-08-25T11:29:01.101Z,57.82
2022-08-25T11:31:29.873Z,58.24
2022-08-25T11:33:58.985Z,56.12
2022-08-25T11:36:37.541Z,55.64
2022-08-25T11:39:53.400Z,56.23
2022-08-25T11:43:01.626Z,61.69
2022-08-25T11:46:08.358Z,56.81
2022-08-25T11:49:08.100Z,60.40
2022-08-25T11:51:45.089Z,62.67
2022-08-25T11:54:28.752Z,62.08
2022-08-25T11:57:17.475Z,63.46
2022-08-25T11:59:52.418Z,63.61
2022-08-25T12:02:45.898Z,61.38
2022-08-25T12:05:20.084Z,55.66
2022-08-25T12:08:07.039Z,59.53
2022-08-25T12:11:11.254Z,60.00
2022-08-25T12:13:51.030Z,54.81
2022-08-25T12:16:34.912Z,59.64
2022-08-25T12:19:34.115Z,59.18
2022-08-25T12:22:03.425Z,60.81
2022-08-25T12:24:47.712Z,53.86
2022-08-25T12:27:26.796Z,54.50
2022-08-25T12:30:15.961Z,54.08
2022-08-25T12:33:15.689Z,54.76
2022-08-25T12:36:03.696Z,53.63
2022-08-25T12:38:47.305Z,54.39
2022-08-25T12:41:33.779Z,54.23
2022-08-25T12:44:44.466Z,54.13
2022-08-25T12:47:32.335Z,54.77
2022-08-25T12:50:28.259Z,54.58
2022-08-25T12:53:08.860Z,57.97
2022-08-25T12:55:42.137Z,59.16
2022-08-25T12:58:11.690Z,59.19
2022-08-25T13:00:56.820Z,57.40
2022-08-25T13:04:10.265Z,55.45
2022-08-25T13:07:23.727Z,54.77
2022-08-25T13:10:55.907Z,57.70
2022-08-25T13:14:01.091Z,53.63
2022-08-25T13:16:30.427Z,56.54
2022-08-25T13:19:03.840Z,53.34
2022-08-25T13:21:40.563Z,55.57
2022-08-25T13:24:40.171Z,53.48
2022-08-25T13:27:22.682Z,52.59
2022-08-25T13:29:58.322Z,53.96
2022-08-25T13:32:36.621Z,52.06
2022-08-25T13:35:20.565Z,53.70
2022-08-25T13:37:50.472Z,53.83
2022-08-25T13:40:27.003Z,55.45
2022-08-25T13:43:01.123Z,56.07
2022-08-25T13:45:41.264Z,52.94
2022-08-25T13:48:22.482Z,51.57
2022-08-25T13:50:52.702Z,51.81
2022-08-25T13:53:30.505Z,53.78
2022-08-25T13:56:02.987Z,55.56
2022-08-25T13:58:45.207Z,52.56
2022-08-25T14:01:48.499Z,55.01
2022-08-25T14:04:51.104Z,55.05
2022-08-25T14:07:20.816Z,54.63
2022-08-25T14:10:00.146Z,55.43
2022-08-25T14:12:45.405Z,56.36
2022-08-25T14:15:29.644Z,52.72
2022-08-25T14:18:14.002Z,52.11
2022-08-25T14:20:50.745Z,51.85
2022-08-25T14:23:26.086Z,51.43
2022-08-25T14:25:57.782Z,54.23
2022-08-25T14:28:30.298Z,51.99
2022-08-25T14:31:08.478Z,51.69
2022-08-25T14:33:59.499Z,51.18
2022-08-25T14:36:30.717Z,51.17
2022-08-25T14:38:59.548Z,53.42
2022-08-25T14:41:28.487Z,53.82
2022-08-25T14:43:56.334Z,50.60
2022-08-25T14:46:28.675Z,50.14
2022-08-25T14:49:00.258Z,50.02
2022-08-25T14:51:32.019Z,49.26
2022-08-25T14:54:04.249Z,50.82
2022-08-25T14:56:33.038Z,50.17
2022-08-25T14:59:02.131Z,50.73
2022-08-25T15:01:34.017Z,51.90
2022-08-25T15:04:08.032Z,52.96
2022-08-25T15:06:37.411Z,52.91
2022-08-25T15:09:12.787Z,52.72
2022-08-25T15:11:51.019Z,53.35
2022-08-25T15:14:28.554Z,52.63
2022-08-25T15:17:01.794Z,53.17
2022-08-25T15:19:29.891Z,53.72
2022-08-25T15:21:59.347Z,53.76
2022-08-25T15:24:28.690Z,53.49
2022-08-25T15:27:00.400Z,54.96
2022-08-25T15:29:31.044Z,54.08
2022-08-25T15:32:01.936Z,54.57
2022-08-25T15:34:30.874Z,53.74
2022-08-25T15:37:05.984Z,54.65
2022-08-25T15:39:35.179Z,54.28
2022-08-25T15:42:03.975Z,55.00
2022-08-25T15:44:33.435Z,54.73
2022-08-25T15:47:03.919Z,55.49
2022-08-25T15:49:33.270Z,54.90
2022-08-25T15:52:01.777Z,54.95
2022-08-25T15:54:31.249Z,54.72
2022-08-25T15:56:59.824Z,55.34
2022-08-25T15:59:29.086Z,55.24
2022-08-25T16:01:57.429Z,55.32
2022-08-25T16:04:28.911Z,55.08
2022-08-25T16:06:57.041Z,55.03
2022-08-25T16:09:26.726Z,55.09
2022-08-25T16:11:55.877Z,54.97
2022-08-25T16:14:27.730Z,55.48
2022-08-25T16:16:58.523Z,55.47
2022-08-25T16:19:29.428Z,56.01
2022-08-25T16:21:59.154Z,56.27
2022-08-25T16:24:28.200Z,56.38
2022-08-25T16:27:11.650Z,57.08
2022-08-25T16:29:43.844Z,56.98
2022-08-25T16:32:15.127Z,56.96
2022-08-25T16:34:44.291Z,56.85
2022-08-25T16:37:13.515Z,57.72
2022-08-25T16:39:45.431Z,57.37
2022-08-25T16:42:14.329Z,57.20
2022-08-25T16:44:42.430Z,57.46
2022-08-25T16:47:14.105Z,58.41
2022-08-25T16:49:42.765Z,58.65
2022-08-25T16:52:31.135Z,58.49
2022-08-25T16:55:15.163Z,58.19
2022-08-25T16:57:51.760Z,58.55
2022-08-25T17:00:28.167Z,58.84
2022-08-25T17:02:59.583Z,58.70
2022-08-25T17:05:33.371Z,58.86
2022-08-25T17:08:20.636Z,59.15
2022-08-25T17:10:48.882Z,59.73
2022-08-25T17:13:17.133Z,59.51
2022-08-25T17:15:48.987Z,60.03
2022-08-25T17:18:20.576Z,59.88
2022-08-25T17:20:48.749Z,60.65
2022-08-25T17:23:21.056Z,60.55
2022-08-25T17:25:51.974Z,60.42
2022-08-25T17:28:20.059Z,60.70
2022-08-25T17:30:49.657Z,61.61
2022-08-25T17:33:18.227Z,61.65
2022-08-25T17:35:54.871Z,62.20
2022-08-25T17:38:26.241Z,62.39
2022-08-25T17:41:01.380Z,62.64
2022-08-25T17:43:31.258Z,62.73
2022-08-25T17:46:00.743Z,62.85
2022-08-25T17:48:33.066Z,63.07
2022-08-25T17:51:02.674Z,63.16
2022-08-25T17:53:30.822Z,63.19
2022-08-25T17:56:09.585Z,63.15
2022-08-25T17:58:39.408Z,63.61
2022-08-25T18:01:20.013Z,63.50
2022-08-25T18:03:51.693Z,63.86
2022-08-25T18:06:23.111Z,63.85
2022-08-25T18:08:57.540Z,63.82
2022-08-25T18:11:30.107Z,64.40
2022-08-25T18:13:59.668Z,64.50
2022-08-25T18:16:29.384Z,64.88
2022-08-25T18:18:59.249Z,65.15
2022-08-25T18:21:31.013Z,65.68
2022-08-25T18:24:01.894Z,66.40
2022-08-25T18:26:30.536Z,66.38
2022-08-25T18:29:00.674Z,66.97
2022-08-25T18:31:29.488Z,67.38
2022-08-25T18:34:02.146Z,67.26
2022-08-25T18:36:30.769Z,67.70
2022-08-25T18:39:18.047Z,68.23
2022-08-25T18:41:48.212Z,68.22
2022-08-25T18:44:17.060Z,68.91
2022-08-25T18:46:46.030Z,68.96
2022-08-25T18:49:15.643Z,69.35
2022-08-25T18:51:48.172Z,69.63
2022-08-25T18:54:23.100Z,69.49
2022-08-25T18:56:56.203Z,69.32
2022-08-25T18:59:24.862Z,69.79
2022-08-25T19:01:54.244Z,69.98
2022-08-25T19:04:28.516Z,70.32
2022-08-25T19:07:02.117Z,70.73
2022-08-25T19:09:36.482Z,70.89
2022-08-25T19:12:05.809Z,71.01
2022-08-25T19:14:34.688Z,71.26
2022-08-25T19:17:03.919Z,71.10
2022-08-25T19:19:32.574Z,71.39
2022-08-25T19:22:01.450Z,71.72
2022-08-25T19:24:35.493Z,72.01
2022-08-25T19:27:12.865Z,72.00
2022-08-25T19:29:42.053Z,72.16
2022-08-25T19:32:12.699Z,72.13
2022-08-25T19:34:47.444Z,72.31
2022-08-25T19:37:27.010Z,72.71
2022-08-25T19:39:57.425Z,72.57
2022-08-25T19:42:35.162Z,72.75
2022-08-25T19:45:10.966Z,72.65
2022-08-25T19:47:44.402Z,72.86
2022-08-25T19:50:16.717Z,72.71
2022-08-25T19:52:47.061Z,72.82
2022-08-25T19:55:22.666Z,73.23
2022-08-25T19:57:54.702Z,73.46
2022-08-25T20:00:29.430Z,73.54
2022-08-25T20:03:01.684Z,73.72
2022-08-25T20:05:31.223Z,73.79
2022-08-25T20:07:59.866Z,73.95
2022-08-25T20:10:31.867Z,74.04
2022-08-25T20:13:05.328Z,74.24
2022-08-25T20:15:39.023Z,74.45
2022-08-25T20:18:08.523Z,74.91
2022-08-25T20:20:36.553Z,74.75
2022-08-25T20:23:24.371Z,74.94
2022-08-25T20:25:52.886Z,74.77
2022-08-25T20:28:20.782Z,74.88
2022-08-25T20:30:48.697Z,74.85
2022-08-25T20:33:22.687Z,74.63
2022-08-25T20:35:53.158Z,74.61
2022-08-25T20:38:21.442Z,74.76
2022-08-25T20:40:49.300Z,74.63
2022-08-25T20:43:17.824Z,74.64
2022-08-25T20:45:45.879Z,74.87
2022-08-25T20:48:13.977Z,74.87
2022-08-25T20:50:41.947Z,74.93
2022-08-25T20:53:10.270Z,74.91
2022-08-25T20:55:42.705Z,75.13
2022-08-25T20:58:12.681Z,75.22
2022-08-25T21:00:44.776Z,75.32
2022-08-25T21:03:12.796Z,75.19
2022-08-25T21:05:43.013Z,75.27
2022-08-25T21:08:11.042Z,75.35
2022-08-25T21:10:40.850Z,75.46
2022-08-25T21:13:08.766Z,75.81
2022-08-25T21:15:40.316Z,76.05
2022-08-25T21:18:08.477Z,76.09
2022-08-25T21:20:39.969Z,76.10
2022-08-25T21:23:08.360Z,76.25
2022-08-25T21:25:41.881Z,76.49
2022-08-25T21:28:09.737Z,76.63
2022-08-25T21:30:44.707Z,76.99
2022-08-25T21:33:15.585Z,77.13
2022-08-25T21:35:43.962Z,77.16
2022-08-25T21:38:11.813Z,77.24
2022-08-25T21:40:39.753Z,77.16
2022-08-25T21:43:12.902Z,77.52
2022-08-25T21:45:46.652Z,77.81
2022-08-25T21:48:16.361Z,77.95
2022-08-25T21:50:44.217Z,77.93
2022-08-25T21:53:12.984Z,78.15
2022-08-25T21:55:44.097Z,77.92
2022-08-25T21:58:11.940Z,77.86
2022-08-25T22:00:39.952Z,77.96
2022-08-25T22:03:07.967Z,78.25
2022-08-25T22:05:39.450Z,78.44
2022-08-25T22:08:08.497Z,78.74
2022-08-25T22:10:44.560Z,78.79
2022-08-25T22:13:12.719Z,79.00
2022-08-25T22:15:40.575Z,79.08
2022-08-25T22:18:08.791Z,78.98
2022-08-25T22:20:36.838Z,79.32
2022-08-25T22:23:09.861Z,79.92
2022-08-25T22:25:48.411Z,80.41
2022-08-25T22:28:16.408Z,80.57
2022-08-25T22:30:44.328Z,80.68
2022-08-25T22:33:13.071Z,80.89
2022-08-25T22:35:41.416Z,81.52
2022-08-25T22:38:12.597Z,81.55
2022-08-25T22:40:41.093Z,81.85
2022-08-25T22:43:11.001Z,82.44
2022-08-25T22:45:39.199Z,82.55
2022-08-25T22:48:07.494Z,82.78
2022-08-25T22:50:37.296Z,82.98
2022-08-25T22:53:05.182Z,83.17
2022-08-25T22:55:33.059Z,83.37
2022-08-25T22:58:00.940Z,83.58
2022-08-25T23:00:28.778Z,83.88
2022-08-25T23:02:56.932Z,83.89
2022-08-25T23:05:24.819Z,84.20
2022-08-25T23:07:52.721Z,84.23
2022-08-25T23:10:22.759Z,84.37
2022-08-25T23:12:51.555Z,84.40
2022-08-25T23:15:19.395Z,84.76
2022-08-25T23:17:47.299Z,84.63
2022-08-25T23:20:35.266Z,85.15
2022-08-25T23:23:05.686Z,85.57
2022-08-25T23:25:40.444Z,85.72
2022-08-25T23:28:08.387Z,85.47
2022-08-25T23:30:39.000Z,85.83
2022-08-25T23:33:07.059Z,86.08
2022-08-25T23:35:35.090Z,86.42
2022-08-25T23:38:03.287Z,86.32
2022-08-25T23:40:32.296Z,86.37
2022-08-25T23:43:00.934Z,86.90
2022-08-25T23:45:29.923Z,87.04
2022-08-25T23:47:58.154Z,87.41
2022-08-25T23:50:26.294Z,87.65
2022-08-25T23:52:54.104Z,87.97
2022-08-25T23:55:22.446Z,87.78
2022-08-25T23:57:51.542Z,88.01
